sensor_id;sensor_type;location;lat;lon;timestamp;pressure;altitude;pressure_sealevel;temperature;humidity
66385;BME280;53426;55.872;37.462;2023-05-23T00:00:59;99653.75;;;12.54;77.53
66385;BME280;53426;55.872;37.462;2023-05-23T00:03:26;99636.69;;;12.37;77.26
66385;BME280;53426;55.872;37.462;2023-05-23T00:05:53;99637.53;;;12.38;77.81
66385;BME280;53426;55.872;37.462;2023-05-23T00:08:21;99652.06;;;12.43;77.31
66385;BME280;53426;55.872;37.462;2023-05-23T00:13:43;99588.81;;;11.99;77.79
66385;BME280;53426;55.872;37.462;2023-05-23T00:16:09;99649.66;;;12.40;77.92
66385;BME280;53426;55.872;37.462;2023-05-23T00:18:36;99639.47;;;12.36;78.22
66385;BME280;53426;55.872;37.462;2023-05-23T00:21:02;99646.59;;;12.35;78.34
66385;BME280;53426;55.872;37.462;2023-05-23T00:23:28;99655.69;;;12.33;78.63
66385;BME280;53426;55.872;37.462;2023-05-23T00:25:54;99640.28;;;12.27;78.22
66385;BME280;53426;55.872;37.462;2023-05-23T00:28:21;99641.53;;;12.23;78.56
66385;BME280;53426;55.872;37.462;2023-05-23T00:30:47;99625.03;;;12.09;78.51
66385;BME280;53426;55.872;37.462;2023-05-23T00:33:18;99628.53;;;12.10;78.68
66385;BME280;53426;55.872;37.462;2023-05-23T00:35:47;99651.16;;;12.24;78.95
66385;BME280;53426;55.872;37.462;2023-05-23T00:38:13;99647.84;;;12.22;79.14
66385;BME280;53426;55.872;37.462;2023-05-23T00:40:42;99632.03;;;12.10;78.93
66385;BME280;53426;55.872;37.462;2023-05-23T00:43:09;99644.72;;;12.16;78.87
66385;BME280;53426;55.872;37.462;2023-05-23T00:45:35;99634.38;;;12.13;78.54
66385;BME280;53426;55.872;37.462;2023-05-23T00:48:01;99636.75;;;12.16;78.80
66385;BME280;53426;55.872;37.462;2023-05-23T00:50:28;99646.56;;;12.26;78.00
66385;BME280;53426;55.872;37.462;2023-05-23T00:52:56;99622.66;;;12.16;77.63
66385;BME280;53426;55.872;37.462;2023-05-23T00:55:24;99649.09;;;12.27;77.97
66385;BME280;53426;55.872;37.462;2023-05-23T00:57:54;99629.06;;;12.13;78.29
66385;BME280;53426;55.872;37.462;2023-05-23T01:00:25;99646.56;;;12.26;77.58
66385;BME280;53426;55.872;37.462;2023-05-23T01:02:52;99630.75;;;12.14;77.67
66385;BME280;53426;55.872;37.462;2023-05-23T01:05:19;99651.59;;;12.29;77.19
66385;BME280;53426;55.872;37.462;2023-05-23T01:07:48;99639.03;;;12.31;76.95
66385;BME280;53426;55.872;37.462;2023-05-23T01:10:16;99640.44;;;12.35;77.17
66385;BME280;53426;55.872;37.462;2023-05-23T01:15:49;99642.84;;;12.38;76.87
66385;BME280;53426;55.872;37.462;2023-05-23T01:18:36;99634.44;;;12.33;76.58
66385;BME280;53426;55.872;37.462;2023-05-23T01:21:10;99629.13;;;12.33;76.43
66385;BME280;53426;55.872;37.462;2023-05-23T01:26:32;99629.69;;;12.46;76.54
66385;BME280;53426;55.872;37.462;2023-05-23T01:29:27;99635.00;;;12.46;76.17
66385;BME280;53426;55.872;37.462;2023-05-23T01:31:56;99612.19;;;12.34;76.06
66385;BME280;53426;55.872;37.462;2023-05-23T01:34:23;99631.38;;;12.47;76.54
66385;BME280;53426;55.872;37.462;2023-05-23T01:36:54;99623.53;;;12.45;75.91
66385;BME280;53426;55.872;37.462;2023-05-23T01:39:21;99606.22;;;12.41;75.53
66385;BME280;53426;55.872;37.462;2023-05-23T01:41:50;99609.28;;;12.56;75.33
66385;BME280;53426;55.872;37.462;2023-05-23T01:44:16;99609.16;;;12.57;74.87
66385;BME280;53426;55.872;37.462;2023-05-23T01:46:43;99620.19;;;12.63;75.23
66385;BME280;53426;55.872;37.462;2023-05-23T01:49:12;99619.22;;;12.64;74.57
66385;BME280;53426;55.872;37.462;2023-05-23T01:51:40;99611.25;;;12.64;74.33
66385;BME280;53426;55.872;37.462;2023-05-23T01:54:07;99619.50;;;12.70;74.66
66385;BME280;53426;55.872;37.462;2023-05-23T01:56:33;99605.09;;;12.63;73.68
66385;BME280;53426;55.872;37.462;2023-05-23T01:59:01;99625.22;;;12.75;73.26
66385;BME280;53426;55.872;37.462;2023-05-23T02:01:29;99639.63;;;12.82;72.28
66385;BME280;53426;55.872;37.462;2023-05-23T02:03:56;99615.69;;;13.02;69.90
66385;BME280;53426;55.872;37.462;2023-05-23T02:06:22;99594.69;;;13.08;70.77
66385;BME280;53426;55.872;37.462;2023-05-23T02:08:51;99617.63;;;13.28;69.57
66385;BME280;53426;55.872;37.462;2023-05-23T02:11:17;99594.25;;;13.22;69.94
66385;BME280;53426;55.872;37.462;2023-05-23T02:13:43;99614.78;;;13.39;69.84
66385;BME280;53426;55.872;37.462;2023-05-23T02:16:10;99594.94;;;13.34;69.55
66385;BME280;53426;55.872;37.462;2023-05-23T02:18:37;99609.44;;;13.49;69.17
66385;BME280;53426;55.872;37.462;2023-05-23T02:21:05;99603.53;;;13.55;68.82
66385;BME280;53426;55.872;37.462;2023-05-23T02:23:30;99602.97;;;13.61;68.26
66385;BME280;53426;55.872;37.462;2023-05-23T02:25:58;99602.66;;;13.64;68.52
66385;BME280;53426;55.872;37.462;2023-05-23T02:28:24;99575.25;;;13.54;68.00
66385;BME280;53426;55.872;37.462;2023-05-23T02:30:50;99607.09;;;13.73;67.81
66385;BME280;53426;55.872;37.462;2023-05-23T02:33:17;99584.41;;;13.69;67.52
66385;BME280;53426;55.872;37.462;2023-05-23T02:35:45;99570.88;;;13.63;67.40
66385;BME280;53426;55.872;37.462;2023-05-23T02:38:11;99611.44;;;13.74;66.43
66385;BME280;53426;55.872;37.462;2023-05-23T02:40:40;99606.75;;;13.86;65.32
66385;BME280;53426;55.872;37.462;2023-05-23T02:43:06;99603.50;;;13.92;65.68
66385;BME280;53426;55.872;37.462;2023-05-23T02:45:32;99600.19;;;14.08;64.86
66385;BME280;53426;55.872;37.462;2023-05-23T02:47:58;99601.97;;;14.17;64.32
66385;BME280;53426;55.872;37.462;2023-05-23T02:50:24;99586.66;;;14.19;63.59
66385;BME280;53426;55.872;37.462;2023-05-23T02:52:50;99592.97;;;14.36;64.25
66385;BME280;53426;55.872;37.462;2023-05-23T02:55:19;99590.81;;;14.49;62.60
66385;BME280;53426;55.872;37.462;2023-05-23T02:57:47;99580.53;;;14.72;62.84
66385;BME280;53426;55.872;37.462;2023-05-23T03:00:13;99595.94;;;15.03;61.07
66385;BME280;53426;55.872;37.462;2023-05-23T03:02:42;99592.13;;;15.06;60.45
66385;BME280;53426;55.872;37.462;2023-05-23T03:05:11;99598.09;;;15.52;59.39
66385;BME280;53426;55.872;37.462;2023-05-23T03:07:37;99592.91;;;15.76;58.54
66385;BME280;53426;55.872;37.462;2023-05-23T03:10:03;99599.94;;;15.85;58.38
66385;BME280;53426;55.872;37.462;2023-05-23T03:12:30;99616.72;;;15.69;58.23
66385;BME280;53426;55.872;37.462;2023-05-23T03:14:56;99608.50;;;15.55;58.10
66385;BME280;53426;55.872;37.462;2023-05-23T03:17:24;99553.94;;;15.05;58.64
66385;BME280;53426;55.872;37.462;2023-05-23T03:19:50;99573.09;;;15.01;59.05
66385;BME280;53426;55.872;37.462;2023-05-23T03:22:18;99575.59;;;15.02;58.83
66385;BME280;53426;55.872;37.462;2023-05-23T03:24:44;99588.47;;;15.07;58.94
66385;BME280;53426;55.872;37.462;2023-05-23T03:27:11;99593.78;;;15.07;58.12
66385;BME280;53426;55.872;37.462;2023-05-23T03:29:38;99599.84;;;15.17;58.23
66385;BME280;53426;55.872;37.462;2023-05-23T03:32:04;99617.25;;;15.21;57.64
66385;BME280;53426;55.872;37.462;2023-05-23T03:34:31;99583.84;;;15.17;57.96
66385;BME280;53426;55.872;37.462;2023-05-23T03:37:01;99591.34;;;15.14;57.71
66385;BME280;53426;55.872;37.462;2023-05-23T03:39:28;99606.00;;;15.35;57.80
66385;BME280;53426;55.872;37.462;2023-05-23T03:41:55;99590.59;;;15.29;57.19
66385;BME280;53426;55.872;37.462;2023-05-23T03:44:22;99575.19;;;15.41;57.43
66385;BME280;53426;55.872;37.462;2023-05-23T03:46:48;99589.97;;;15.61;57.06
66385;BME280;53426;55.872;37.462;2023-05-23T03:49:45;99610.03;;;15.65;56.90
66385;BME280;53426;55.872;37.462;2023-05-23T03:52:12;99601.84;;;15.67;56.46
66385;BME280;53426;55.872;37.462;2023-05-23T03:54:39;99566.59;;;15.55;56.92
66385;BME280;53426;55.872;37.462;2023-05-23T03:57:07;99602.28;;;15.88;56.07
66385;BME280;53426;55.872;37.462;2023-05-23T03:59:33;99600.84;;;16.02;55.42
66385;BME280;53426;55.872;37.462;2023-05-23T04:02:00;99597.53;;;16.08;55.77
66385;BME280;53426;55.872;37.462;2023-05-23T04:04:27;99593.38;;;16.21;55.25
66385;BME280;53426;55.872;37.462;2023-05-23T04:06:53;99595.09;;;16.30;55.20
66385;BME280;53426;55.872;37.462;2023-05-23T04:09:19;99577.19;;;16.31;54.35
66385;BME280;53426;55.872;37.462;2023-05-23T04:11:47;99596.06;;;16.38;54.71
66385;BME280;53426;55.872;37.462;2023-05-23T04:14:13;99597.75;;;16.30;55.00
66385;BME280;53426;55.872;37.462;2023-05-23T04:16:39;99586.53;;;16.27;54.30
66385;BME280;53426;55.872;37.462;2023-05-23T04:19:08;99589.22;;;16.27;54.75
66385;BME280;53426;55.872;37.462;2023-05-23T04:21:35;99570.31;;;16.12;54.81
66385;BME280;53426;55.872;37.462;2023-05-23T04:24:10;99594.38;;;16.20;55.08
66385;BME280;53426;55.872;37.462;2023-05-23T04:26:36;99589.00;;;16.12;55.04
66385;BME280;53426;55.872;37.462;2023-05-23T04:29:03;99588.97;;;16.04;55.50
66385;BME280;53426;55.872;37.462;2023-05-23T04:31:31;99582.94;;;15.94;55.27
66385;BME280;53426;55.872;37.462;2023-05-23T04:34:00;99583.41;;;15.81;55.72
66385;BME280;53426;55.872;37.462;2023-05-23T04:36:28;99586.53;;;15.77;56.07
66385;BME280;53426;55.872;37.462;2023-05-23T04:39:04;99570.16;;;15.64;55.92
66385;BME280;53426;55.872;37.462;2023-05-23T04:41:32;99548.09;;;15.54;55.85
66385;BME280;53426;55.872;37.462;2023-05-23T04:44:31;99556.81;;;15.64;55.68
66385;BME280;53426;55.872;37.462;2023-05-23T04:47:08;99588.13;;;15.96;55.34
66385;BME280;53426;55.872;37.462;2023-05-23T04:49:50;99575.31;;;16.07;55.32
66385;BME280;53426;55.872;37.462;2023-05-23T04:52:18;99598.41;;;16.32;55.06
66385;BME280;53426;55.872;37.462;2023-05-23T04:54:45;99566.03;;;16.36;54.22
66385;BME280;53426;55.872;37.462;2023-05-23T04:57:11;99585.09;;;16.57;54.36
66385;BME280;53426;55.872;37.462;2023-05-23T04:59:37;99573.75;;;16.71;53.67
66385;BME280;53426;55.872;37.462;2023-05-23T05:02:04;99565.09;;;16.85;53.24
66385;BME280;53426;55.872;37.462;2023-05-23T05:04:35;99596.13;;;17.27;52.72
66385;BME280;53426;55.872;37.462;2023-05-23T05:07:01;99576.72;;;17.33;51.71
66385;BME280;53426;55.872;37.462;2023-05-23T05:09:29;99587.84;;;17.52;51.95
66385;BME280;53426;55.872;37.462;2023-05-23T05:11:56;99599.75;;;17.50;52.03
66385;BME280;53426;55.872;37.462;2023-05-23T05:14:23;99598.44;;;17.38;52.40
66385;BME280;53426;55.872;37.462;2023-05-23T05:16:49;99592.59;;;17.34;51.72
66385;BME280;53426;55.872;37.462;2023-05-23T05:19:16;99570.38;;;17.09;52.30
66385;BME280;53426;55.872;37.462;2023-05-23T05:21:42;99607.50;;;17.21;52.79
66385;BME280;53426;55.872;37.462;2023-05-23T05:24:09;99594.13;;;17.04;53.10
66385;BME280;53426;55.872;37.462;2023-05-23T05:26:35;99592.78;;;17.17;53.06
66385;BME280;53426;55.872;37.462;2023-05-23T05:29:01;99614.19;;;17.33;52.81
66385;BME280;53426;55.872;37.462;2023-05-23T05:31:29;99612.84;;;17.29;52.70
66385;BME280;53426;55.872;37.462;2023-05-23T05:33:54;99606.97;;;17.25;52.43
66385;BME280;53426;55.872;37.462;2023-05-23T05:36:20;99640.94;;;17.25;52.80
66385;BME280;53426;55.872;37.462;2023-05-23T05:38:50;99613.81;;;17.36;51.97
66385;BME280;53426;55.872;37.462;2023-05-23T05:41:19;99607.44;;;17.61;52.47
66385;BME280;53426;55.872;37.462;2023-05-23T05:43:49;99609.94;;;17.63;52.18
66385;BME280;53426;55.872;37.462;2023-05-23T05:46:15;99584.06;;;17.31;52.85
66385;BME280;53426;55.872;37.462;2023-05-23T05:48:42;99612.81;;;17.45;52.80
66385;BME280;53426;55.872;37.462;2023-05-23T05:51:11;99619.00;;;17.45;53.37
66385;BME280;53426;55.872;37.462;2023-05-23T05:53:37;99586.22;;;17.35;53.58
66385;BME280;53426;55.872;37.462;2023-05-23T05:56:04;99606.78;;;17.43;53.37
66385;BME280;53426;55.872;37.462;2023-05-23T05:58:31;99607.47;;;17.45;53.53
66385;BME280;53426;55.872;37.462;2023-05-23T06:01:04;99602.78;;;17.39;54.00
66385;BME280;53426;55.872;37.462;2023-05-23T06:03:31;99600.97;;;17.31;53.24
66385;BME280;53426;55.872;37.462;2023-05-23T06:05:57;99605.31;;;17.32;54.53
66385;BME280;53426;55.872;37.462;2023-05-23T06:08:24;99613.19;;;17.26;54.39
66385;BME280;53426;55.872;37.462;2023-05-23T06:10:50;99594.75;;;17.39;53.85
66385;BME280;53426;55.872;37.462;2023-05-23T06:13:16;99616.97;;;17.64;54.16
66385;BME280;53426;55.872;37.462;2023-05-23T06:15:45;99607.09;;;17.64;53.25
66385;BME280;53426;55.872;37.462;2023-05-23T06:18:12;99573.94;;;17.57;53.19
66385;BME280;53426;55.872;37.462;2023-05-23T06:20:38;99599.06;;;17.72;53.07
66385;BME280;53426;55.872;37.462;2023-05-23T06:23:09;99586.16;;;17.68;53.69
66385;BME280;53426;55.872;37.462;2023-05-23T06:25:35;99583.47;;;17.68;53.57
66385;BME280;53426;55.872;37.462;2023-05-23T06:31:37;99571.22;;;17.73;53.24
66385;BME280;53426;55.872;37.462;2023-05-23T06:34:04;99573.84;;;17.89;53.28
66385;BME280;53426;55.872;37.462;2023-05-23T06:36:30;99572.81;;;17.98;52.62
66385;BME280;53426;55.872;37.462;2023-05-23T06:38:59;99576.28;;;18.07;52.96
66385;BME280;53426;55.872;37.462;2023-05-23T06:41:25;99552.22;;;17.99;52.33
66385;BME280;53426;55.872;37.462;2023-05-23T06:43:52;99560.31;;;18.14;51.65
66385;BME280;53426;55.872;37.462;2023-05-23T06:46:23;99569.69;;;18.18;52.32
66385;BME280;53426;55.872;37.462;2023-05-23T06:48:49;99558.38;;;18.30;52.23
66385;BME280;53426;55.872;37.462;2023-05-23T06:51:20;99565.69;;;18.67;51.14
66385;BME280;53426;55.872;37.462;2023-05-23T06:54:06;99486.59;;;18.18;51.12
66385;BME280;53426;55.872;37.462;2023-05-23T06:56:33;99554.97;;;18.82;50.84
66385;BME280;53426;55.872;37.462;2023-05-23T06:58:58;99553.66;;;19.01;50.38
66385;BME280;53426;55.872;37.462;2023-05-23T07:01:25;99565.28;;;19.60;48.94
66385;BME280;53426;55.872;37.462;2023-05-23T07:03:52;99553.78;;;20.31;47.66
66385;BME280;53426;55.872;37.462;2023-05-23T07:06:18;99556.13;;;21.05;45.63
66385;BME280;53426;55.872;37.462;2023-05-23T07:08:44;99544.75;;;22.26;43.34
66385;BME280;53426;55.872;37.462;2023-05-23T07:11:12;99553.19;;;23.23;41.08
66385;BME280;53426;55.872;37.462;2023-05-23T07:13:41;99545.59;;;23.77;40.35
66385;BME280;53426;55.872;37.462;2023-05-23T07:16:12;99535.47;;;24.49;38.57
66385;BME280;53426;55.872;37.462;2023-05-23T07:18:49;99519.78;;;24.26;38.68
66385;BME280;53426;55.872;37.462;2023-05-23T07:21:15;99515.91;;;23.64;39.49
66385;BME280;53426;55.872;37.462;2023-05-23T07:26:37;99501.06;;;22.63;41.46
66385;BME280;53426;55.872;37.462;2023-05-23T07:29:04;99525.38;;;22.83;41.35
66385;BME280;53426;55.872;37.462;2023-05-23T07:31:30;99532.84;;;23.01;40.84
66385;BME280;53426;55.872;37.462;2023-05-23T07:34:05;99524.47;;;23.48;41.81
66385;BME280;53426;55.872;37.462;2023-05-23T07:36:37;99522.91;;;23.78;40.02
66385;BME280;53426;55.872;37.462;2023-05-23T07:39:08;99526.09;;;24.07;38.64
66385;BME280;53426;55.872;37.462;2023-05-23T07:41:35;99534.16;;;23.75;39.47
66385;BME280;53426;55.872;37.462;2023-05-23T07:44:01;99527.72;;;23.70;39.51
66385;BME280;53426;55.872;37.462;2023-05-23T07:46:27;99515.19;;;23.89;38.67
66385;BME280;53426;55.872;37.462;2023-05-23T07:49:03;99532.00;;;24.67;37.87
66385;BME280;53426;55.872;37.462;2023-05-23T07:51:29;99512.22;;;24.66;37.80
66385;BME280;53426;55.872;37.462;2023-05-23T07:53:58;99537.78;;;25.02;37.50
66385;BME280;53426;55.872;37.462;2023-05-23T07:56:24;99537.41;;;25.41;36.58
66385;BME280;53426;55.872;37.462;2023-05-23T07:58:52;99529.09;;;26.09;35.68
66385;BME280;53426;55.872;37.462;2023-05-23T08:01:20;99513.06;;;26.37;35.55
66385;BME280;53426;55.872;37.462;2023-05-23T08:03:52;99531.59;;;26.70;34.28
66385;BME280;53426;55.872;37.462;2023-05-23T08:06:28;99523.19;;;25.82;35.41
66385;BME280;53426;55.872;37.462;2023-05-23T08:08:57;99533.13;;;25.52;35.64
66385;BME280;53426;55.872;37.462;2023-05-23T08:11:26;99534.88;;;25.21;35.80
66385;BME280;53426;55.872;37.462;2023-05-23T08:13:55;99527.25;;;25.55;35.74
66385;BME280;53426;55.872;37.462;2023-05-23T08:16:40;99512.28;;;25.70;35.61
66385;BME280;53426;55.872;37.462;2023-05-23T08:19:12;99528.47;;;25.59;35.26
66385;BME280;53426;55.872;37.462;2023-05-23T08:21:41;99533.38;;;25.07;35.94
66385;BME280;53426;55.872;37.462;2023-05-23T08:24:07;99538.28;;;24.29;38.06
66385;BME280;53426;55.872;37.462;2023-05-23T08:26:37;99522.34;;;23.63;38.50
66385;BME280;53426;55.872;37.462;2023-05-23T08:30:15;99540.66;;;23.35;39.66
66385;BME280;53426;55.872;37.462;2023-05-23T08:32:42;99526.38;;;23.15;40.34
66385;BME280;53426;55.872;37.462;2023-05-23T08:35:18;99534.03;;;23.24;40.93
66385;BME280;53426;55.872;37.462;2023-05-23T08:37:44;99499.16;;;23.03;41.08
66385;BME280;53426;55.872;37.462;2023-05-23T08:40:19;99524.50;;;23.09;41.58
66385;BME280;53426;55.872;37.462;2023-05-23T08:42:53;99529.09;;;22.75;42.38
66385;BME280;53426;55.872;37.462;2023-05-23T08:45:20;99511.66;;;22.84;42.28
66385;BME280;53426;55.872;37.462;2023-05-23T08:47:50;99487.78;;;22.94;41.78
66385;BME280;53426;55.872;37.462;2023-05-23T08:50:20;99513.03;;;23.40;41.93
66385;BME280;53426;55.872;37.462;2023-05-23T08:52:58;99525.78;;;23.13;42.15
66385;BME280;53426;55.872;37.462;2023-05-23T08:55:27;99525.78;;;22.93;42.68
66385;BME280;53426;55.872;37.462;2023-05-23T08:57:58;99522.44;;;23.17;42.77
66385;BME280;53426;55.872;37.462;2023-05-23T09:00:42;99529.88;;;23.55;42.16
66385;BME280;53426;55.872;37.462;2023-05-23T09:03:08;99529.00;;;23.61;41.66
66385;BME280;53426;55.872;37.462;2023-05-23T09:06:07;99514.75;;;23.85;41.56
66385;BME280;53426;55.872;37.462;2023-05-23T09:08:34;99521.66;;;23.81;41.36
66385;BME280;53426;55.872;37.462;2023-05-23T09:11:02;99531.81;;;23.86;41.75
66385;BME280;53426;55.872;37.462;2023-05-23T09:13:32;99512.41;;;23.51;42.48
66385;BME280;53426;55.872;37.462;2023-05-23T09:16:04;99526.50;;;23.66;42.37
66385;BME280;53426;55.872;37.462;2023-05-23T09:18:40;99529.00;;;23.67;43.09
66385;BME280;53426;55.872;37.462;2023-05-23T09:21:09;99531.00;;;23.85;42.94
66385;BME280;53426;55.872;37.462;2023-05-23T09:23:40;99534.22;;;23.36;43.21
66385;BME280;53426;55.872;37.462;2023-05-23T09:26:08;99535.53;;;22.87;44.38
66385;BME280;53426;55.872;37.462;2023-05-23T09:28:37;99522.47;;;22.71;44.42
66385;BME280;53426;55.872;37.462;2023-05-23T09:31:05;99515.94;;;22.20;45.35
66385;BME280;53426;55.872;37.462;2023-05-23T09:33:49;99559.34;;;22.44;45.71
66385;BME280;53426;55.872;37.462;2023-05-23T09:36:19;99530.72;;;22.50;45.86
66385;BME280;53426;55.872;37.462;2023-05-23T09:38:46;99541.31;;;22.51;46.10
66385;BME280;53426;55.872;37.462;2023-05-23T09:41:13;99543.84;;;22.92;44.66
66385;BME280;53426;55.872;37.462;2023-05-23T09:43:53;99535.56;;;23.85;43.52
66385;BME280;53426;55.872;37.462;2023-05-23T09:46:20;99548.84;;;23.99;43.34
66385;BME280;53426;55.872;37.462;2023-05-23T09:48:50;99536.81;;;23.89;42.70
66385;BME280;53426;55.872;37.462;2023-05-23T09:51:19;99543.59;;;23.53;43.90
66385;BME280;53426;55.872;37.462;2023-05-23T09:53:46;99574.75;;;23.36;44.71
66385;BME280;53426;55.872;37.462;2023-05-23T09:56:16;99557.13;;;22.87;46.05
66385;BME280;53426;55.872;37.462;2023-05-23T09:58:46;99567.66;;;22.49;46.41
66385;BME280;53426;55.872;37.462;2023-05-23T10:01:13;99550.28;;;22.72;46.98
66385;BME280;53426;55.872;37.462;2023-05-23T10:06:49;99590.88;;;22.44;46.61
66385;BME280;53426;55.872;37.462;2023-05-23T10:09:38;99557.84;;;21.40;48.60
66385;BME280;53426;55.872;37.462;2023-05-23T10:16:11;99505.84;;;19.99;53.40
66385;BME280;53426;55.872;37.462;2023-05-23T10:18:48;99463.97;;;19.54;54.11
66385;BME280;53426;55.872;37.462;2023-05-23T10:21:19;99480.94;;;19.69;54.44
66385;BME280;53426;55.872;37.462;2023-05-23T10:23:50;99549.50;;;20.01;54.34
66385;BME280;53426;55.872;37.462;2023-05-23T10:26:19;99566.19;;;19.96;55.42
66385;BME280;53426;55.872;37.462;2023-05-23T10:28:47;99564.88;;;20.07;55.34
66385;BME280;53426;55.872;37.462;2023-05-23T10:31:15;99572.50;;;19.89;55.95
66385;BME280;53426;55.872;37.462;2023-05-23T10:33:59;99574.44;;;19.80;55.65
66385;BME280;53426;55.872;37.462;2023-05-23T10:36:34;99571.47;;;19.75;56.39
66385;BME280;53426;55.872;37.462;2023-05-23T10:39:15;99569.19;;;19.57;56.82
66385;BME280;53426;55.872;37.462;2023-05-23T10:42:01;99586.16;;;19.58;57.16
66385;BME280;53426;55.872;37.462;2023-05-23T10:44:30;99575.75;;;19.40;57.76
66385;BME280;53426;55.872;37.462;2023-05-23T10:46:58;99565.91;;;19.18;58.26
66385;BME280;53426;55.872;37.462;2023-05-23T10:49:50;99574.44;;;19.36;58.81
66385;BME280;53426;55.872;37.462;2023-05-23T10:52:19;99578.31;;;19.34;59.29
66385;BME280;53426;55.872;37.462;2023-05-23T10:54:49;99575.53;;;19.12;59.27
66385;BME280;53426;55.872;37.462;2023-05-23T10:57:19;99569.31;;;19.12;60.97
66385;BME280;53426;55.872;37.462;2023-05-23T10:59:50;99580.78;;;19.06;60.17
66385;BME280;53426;55.872;37.462;2023-05-23T11:02:24;99572.84;;;19.12;60.70
66385;BME280;53426;55.872;37.462;2023-05-23T11:05:26;99572.00;;;19.12;59.97
66385;BME280;53426;55.872;37.462;2023-05-23T11:08:12;99570.69;;;19.08;59.95
66385;BME280;53426;55.872;37.462;2023-05-23T11:10:58;99567.81;;;18.72;61.67
66385;BME280;53426;55.872;37.462;2023-05-23T11:16:29;99564.28;;;18.26;66.19
66385;BME280;53426;55.872;37.462;2023-05-23T11:21:48;99577.13;;;17.69;68.70
66385;BME280;53426;55.872;37.462;2023-05-23T11:24:15;99577.13;;;17.52;70.88
66385;BME280;53426;55.872;37.462;2023-05-23T11:26:57;99556.97;;;17.34;71.33
66385;BME280;53426;55.872;37.462;2023-05-23T11:29:37;99575.53;;;17.27;73.12
66385;BME280;53426;55.872;37.462;2023-05-23T11:32:10;99569.88;;;17.22;72.97
66385;BME280;53426;55.872;37.462;2023-05-23T11:35:03;99582.09;;;17.17;73.12
66385;BME280;53426;55.872;37.462;2023-05-23T11:37:42;99532.63;;;16.88;73.88
66385;BME280;53426;55.872;37.462;2023-05-23T11:40:25;99568.56;;;17.10;74.86
66385;BME280;53426;55.872;37.462;2023-05-23T11:42:53;99589.47;;;16.98;74.77
66385;BME280;53426;55.872;37.462;2023-05-23T11:45:19;99580.09;;;16.86;75.06
66385;BME280;53426;55.872;37.462;2023-05-23T11:47:45;99586.81;;;16.90;75.14
66385;BME280;53426;55.872;37.462;2023-05-23T11:50:11;99590.78;;;16.86;75.37
66385;BME280;53426;55.872;37.462;2023-05-23T11:52:41;99592.47;;;16.87;75.42
66385;BME280;53426;55.872;37.462;2023-05-23T11:55:08;99590.31;;;16.83;77.38
66385;BME280;53426;55.872;37.462;2023-05-23T11:57:37;99570.72;;;16.58;79.30
66385;BME280;53426;55.872;37.462;2023-05-23T12:00:08;99579.41;;;16.52;79.90
66385;BME280;53426;55.872;37.462;2023-05-23T12:02:50;99573.19;;;16.43;79.22
66385;BME280;53426;55.872;37.462;2023-05-23T12:10:18;99546.13;;;16.14;78.48
66385;BME280;53426;55.872;37.462;2023-05-23T12:12:47;99459.56;;;15.74;77.83
66385;BME280;53426;55.872;37.462;2023-05-23T12:15:15;99496.88;;;16.08;77.43
66385;BME280;53426;55.872;37.462;2023-05-23T12:17:44;99508.88;;;16.37;76.60
66385;BME280;53426;55.872;37.462;2023-05-23T12:20:35;99573.09;;;17.01;76.24
66385;BME280;53426;55.872;37.462;2023-05-23T12:23:08;99505.59;;;16.67;75.17
66385;BME280;53426;55.872;37.462;2023-05-23T12:25:40;99456.94;;;16.55;74.74
66385;BME280;53426;55.872;37.462;2023-05-23T12:28:10;99525.59;;;17.11;74.27
66385;BME280;53426;55.872;37.462;2023-05-23T12:30:42;99472.28;;;17.02;73.41
66385;BME280;53426;55.872;37.462;2023-05-23T12:33:17;99533.50;;;17.44;73.27
66385;BME280;53426;55.872;37.462;2023-05-23T12:36:12;99556.13;;;17.88;71.78
66385;BME280;53426;55.872;37.462;2023-05-23T12:39:22;99440.75;;;17.28;70.99
66385;BME280;53426;55.872;37.462;2023-05-23T12:42:08;99483.53;;;17.75;70.83
66385;BME280;53426;55.872;37.462;2023-05-23T12:47:52;99545.69;;;18.47;69.49
66385;BME280;53426;55.872;37.462;2023-05-23T12:50:18;99550.50;;;18.60;69.51
66385;BME280;53426;55.872;37.462;2023-05-23T12:52:44;99543.50;;;18.73;69.17
66385;BME280;53426;55.872;37.462;2023-05-23T12:55:11;99537.44;;;18.57;68.48
66385;BME280;53426;55.872;37.462;2023-05-23T12:57:37;99527.50;;;18.65;68.22
66385;BME280;53426;55.872;37.462;2023-05-23T13:00:04;99532.78;;;18.73;68.68
66385;BME280;53426;55.872;37.462;2023-05-23T13:02:40;99534.75;;;18.94;68.29
66385;BME280;53426;55.872;37.462;2023-05-23T13:05:07;99545.72;;;19.07;66.48
66385;BME280;53426;55.872;37.462;2023-05-23T13:07:36;99522.94;;;19.03;66.32
66385;BME280;53426;55.872;37.462;2023-05-23T13:10:02;99526.31;;;19.20;66.36
66385;BME280;53426;55.872;37.462;2023-05-23T13:12:31;99502.31;;;19.18;65.66
66385;BME280;53426;55.872;37.462;2023-05-23T13:18:56;99433.72;;;19.01;65.32
66385;BME280;53426;55.872;37.462;2023-05-23T13:21:48;99538.63;;;20.09;64.57
66385;BME280;53426;55.872;37.462;2023-05-23T13:24:37;99462.41;;;20.17;62.71
66385;BME280;53426;55.872;37.462;2023-05-23T13:27:09;99505.47;;;20.87;61.31
66385;BME280;53426;55.872;37.462;2023-05-23T13:30:26;99508.94;;;21.09;61.08
66385;BME280;53426;55.872;37.462;2023-05-23T13:33:17;99505.16;;;21.03;61.41
66385;BME280;53426;55.872;37.462;2023-05-23T13:35:43;99440.56;;;20.48;61.77
66385;BME280;53426;55.872;37.462;2023-05-23T13:38:09;99462.59;;;20.58;62.63
66385;BME280;53426;55.872;37.462;2023-05-23T13:40:36;99443.66;;;20.44;62.20
66385;BME280;53426;55.872;37.462;2023-05-23T13:43:01;99468.47;;;20.68;61.93
66385;BME280;53426;55.872;37.462;2023-05-23T13:45:27;99452.72;;;20.65;61.52
66385;BME280;53426;55.872;37.462;2023-05-23T13:47:54;99486.28;;;20.69;61.40